createdAt,value
2018-03-23T00:01:38.941Z,3.70
2018-03-23T00:04:06.501Z,3.70
2018-03-23T00:06:34.006Z,3.70
2018-03-23T00:09:01.475Z,3.70
2018-03-23T00:11:28.960Z,3.80
2018-03-23T00:13:57.168Z,3.80
2018-03-23T00:16:24.634Z,3.80
2018-03-23T00:18:52.206Z,3.80
2018-03-23T00:21:19.692Z,3.80
2018-03-23T00:23:47.920Z,3.70
2018-03-23T00:26:16.248Z,3.80
2018-03-23T00:28:44.600Z,3.80
2018-03-23T00:31:12.092Z,3.80
2018-03-23T00:33:39.703Z,3.80
2018-03-23T00:36:07.998Z,3.80
2018-03-23T00:38:35.463Z,3.80
2018-03-23T00:41:03.045Z,3.90
2018-03-23T00:43:31.344Z,4.00
2018-03-23T00:45:59.007Z,3.90
2018-03-23T00:48:26.464Z,3.90
2018-03-23T00:50:54.001Z,3.90
2018-03-23T00:53:21.476Z,3.90
2018-03-23T00:55:48.951Z,3.90
2018-03-23T00:58:16.421Z,3.90
2018-03-23T01:00:43.893Z,4.00
2018-03-23T01:03:11.412Z,4.10
2018-03-23T01:05:38.847Z,4.00
2018-03-23T01:08:06.391Z,4.10
2018-03-23T01:10:34.684Z,4.10
2018-03-23T01:13:02.184Z,4.00
2018-03-23T01:15:29.646Z,4.10
2018-03-23T01:17:57.109Z,4.10
2018-03-23T01:20:24.684Z,4.00
2018-03-23T01:22:52.143Z,4.00
2018-03-23T01:25:19.572Z,4.00
2018-03-23T01:27:47.036Z,4.00
2018-03-23T01:30:14.506Z,3.90
2018-03-23T01:32:42.762Z,3.80
2018-03-23T01:35:10.258Z,3.80
2018-03-23T01:37:37.695Z,3.80
2018-03-23T01:40:05.152Z,3.80
2018-03-23T01:42:32.912Z,3.70
2018-03-23T01:45:00.454Z,3.70
2018-03-23T01:47:28.728Z,3.80
2018-03-23T01:49:56.203Z,3.70
2018-03-23T01:52:24.415Z,3.70
2018-03-23T01:54:51.909Z,3.70
2018-03-23T01:57:19.425Z,3.80
2018-03-23T01:59:46.880Z,3.70
2018-03-23T02:02:14.352Z,3.70
2018-03-23T02:04:41.798Z,3.80
2018-03-23T02:07:09.321Z,3.70
2018-03-23T02:09:36.776Z,3.70
2018-03-23T02:12:05.016Z,3.80
2018-03-23T02:14:32.528Z,3.80
2018-03-23T02:17:00.043Z,3.80
2018-03-23T02:19:27.494Z,3.80
2018-03-23T02:21:54.977Z,3.80
2018-03-23T02:24:23.197Z,3.80
2018-03-23T02:26:50.647Z,3.80
2018-03-23T02:29:18.197Z,3.80
2018-03-23T02:31:45.669Z,3.80
2018-03-23T02:34:13.260Z,3.70
2018-03-23T02:36:40.729Z,3.80
2018-03-23T02:39:08.230Z,3.80
2018-03-23T02:41:35.684Z,3.80
2018-03-23T02:44:03.137Z,3.80
2018-03-23T02:46:30.618Z,3.80
2018-03-23T02:48:58.139Z,3.80
2018-03-23T02:51:25.607Z,3.80
2018-03-23T02:53:53.220Z,3.80
2018-03-23T02:56:20.676Z,3.80
2018-03-23T02:58:48.177Z,3.70
2018-03-23T03:01:15.649Z,3.70
2018-03-23T03:03:43.136Z,3.80
2018-03-23T03:06:10.556Z,3.80
2018-03-23T03:08:38.037Z,3.80
2018-03-23T03:11:05.484Z,3.80
2018-03-23T03:13:32.970Z,3.80
2018-03-23T03:16:00.424Z,3.90
2018-03-23T03:18:28.381Z,3.80
2018-03-23T03:20:56.007Z,3.80
2018-03-23T03:23:23.456Z,3.90
2018-03-23T03:25:50.977Z,3.90
2018-03-23T03:28:19.254Z,4.00
2018-03-23T03:30:47.490Z,3.90
2018-03-23T03:33:14.929Z,3.90
2018-03-23T03:35:42.387Z,4.00
2018-03-23T03:38:09.848Z,4.10
2018-03-23T03:40:37.374Z,4.10
2018-03-23T03:43:04.956Z,4.10
2018-03-23T03:45:32.425Z,4.10
2018-03-23T03:47:59.868Z,4.00
2018-03-23T03:50:27.335Z,4.00
2018-03-23T03:52:54.796Z,4.00
2018-03-23T03:55:22.292Z,4.00
2018-03-23T03:57:49.728Z,3.90
2018-03-23T04:00:17.203Z,4.00
2018-03-23T04:02:44.712Z,3.90
2018-03-23T04:05:12.289Z,3.90
2018-03-23T04:07:39.769Z,3.90
2018-03-23T04:10:07.208Z,3.90
2018-03-23T04:12:34.673Z,3.80
2018-03-23T04:15:02.916Z,3.80
2018-03-23T04:17:30.378Z,3.80
2018-03-23T04:19:57.853Z,3.80
2018-03-23T04:22:25.313Z,3.80
2018-03-23T04:24:52.752Z,3.90
2018-03-23T04:27:20.251Z,3.90
2018-03-23T04:29:48.487Z,3.90
2018-03-23T04:32:15.948Z,3.90
2018-03-23T04:34:43.546Z,3.90
2018-03-23T04:37:10.996Z,3.90
2018-03-23T04:39:38.461Z,3.90
2018-03-23T04:42:05.910Z,3.90
2018-03-23T04:44:33.839Z,3.90
2018-03-23T04:47:01.323Z,4.00
2018-03-23T04:49:28.790Z,3.90
2018-03-23T04:51:56.302Z,4.00
2018-03-23T04:54:23.776Z,4.00
2018-03-23T04:56:51.231Z,4.00
2018-03-23T04:59:18.699Z,3.90
2018-03-23T05:01:46.946Z,3.90
2018-03-23T05:04:14.416Z,3.90
2018-03-23T05:06:41.874Z,3.90
2018-03-23T05:09:09.367Z,3.90
2018-03-23T05:11:36.873Z,3.90
2018-03-23T05:14:04.348Z,3.90
2018-03-23T05:16:31.924Z,3.90
2018-03-23T05:19:00.201Z,3.80
2018-03-23T05:21:28.438Z,3.80
2018-03-23T05:23:55.919Z,3.80
2018-03-23T05:26:24.141Z,3.80
2018-03-23T05:28:51.620Z,3.80
2018-03-23T05:31:19.076Z,3.80
2018-03-23T05:33:46.536Z,3.80
2018-03-23T05:36:14.022Z,3.80
2018-03-23T05:38:42.325Z,3.90
2018-03-23T05:41:09.854Z,3.80
2018-03-23T05:43:38.104Z,3.90
2018-03-23T05:46:05.564Z,3.90
2018-03-23T05:48:33.016Z,4.00
2018-03-23T05:51:00.571Z,4.00
2018-03-23T05:53:28.030Z,4.10
2018-03-23T05:55:55.512Z,4.10
2018-03-23T05:58:23.736Z,4.10
2018-03-23T06:00:51.272Z,4.10
2018-03-23T06:05:52.603Z,4.10
2018-03-23T06:08:20.812Z,4.20
2018-03-23T06:10:48.317Z,4.20
2018-03-23T06:13:15.804Z,4.20
2018-03-23T06:15:43.291Z,4.30
2018-03-23T06:18:10.752Z,4.30
2018-03-23T06:20:38.205Z,4.30
2018-03-23T06:23:05.695Z,4.40
2018-03-23T06:25:33.146Z,4.30
2018-03-23T06:28:00.669Z,4.30
2018-03-23T06:30:28.112Z,4.30
2018-03-23T06:32:55.572Z,4.20
2018-03-23T06:35:23.031Z,4.30
2018-03-23T06:37:50.510Z,4.30
2018-03-23T06:40:18.041Z,4.30
2018-03-23T06:42:46.286Z,4.30
2018-03-23T06:45:14.397Z,4.40
2018-03-23T06:47:41.855Z,4.30
2018-03-23T06:50:09.383Z,4.30
2018-03-23T06:52:37.609Z,4.20
2018-03-23T06:55:05.138Z,4.20
2018-03-23T06:57:32.589Z,4.20
2018-03-23T07:00:00.053Z,4.20
2018-03-23T07:02:27.511Z,4.20
2018-03-23T07:04:54.964Z,4.20
2018-03-23T07:07:22.508Z,4.20
2018-03-23T07:09:49.957Z,4.20
2018-03-23T07:12:18.202Z,4.30
2018-03-23T07:14:45.660Z,4.30
2018-03-23T07:17:13.108Z,4.30
2018-03-23T07:19:40.612Z,4.40
2018-03-23T07:22:08.172Z,4.30
2018-03-23T07:24:35.715Z,4.50
2018-03-23T07:27:03.184Z,4.50
2018-03-23T07:29:30.644Z,4.50
2018-03-23T07:31:58.372Z,4.50
2018-03-23T07:34:26.615Z,4.60
2018-03-23T07:36:54.068Z,4.60
2018-03-23T07:39:22.153Z,4.50
2018-03-23T07:41:49.641Z,4.60
2018-03-23T07:44:17.845Z,4.80
2018-03-23T07:46:45.316Z,4.80
2018-03-23T07:49:12.789Z,4.80
2018-03-23T07:51:40.379Z,4.90
2018-03-23T07:54:08.603Z,4.90
2018-03-23T07:56:36.032Z,4.90
2018-03-23T07:59:03.494Z,5.00
2018-03-23T08:01:30.966Z,5.10
2018-03-23T08:03:58.562Z,5.00
2018-03-23T08:06:26.014Z,4.90
2018-03-23T08:08:53.483Z,4.90
2018-03-23T08:11:20.965Z,4.90
2018-03-23T08:13:48.572Z,5.00
2018-03-23T08:16:16.019Z,5.00
2018-03-23T08:18:43.521Z,5.10
2018-03-23T08:21:10.969Z,5.10
2018-03-23T08:23:38.438Z,5.00
2018-03-23T08:26:06.649Z,5.20
2018-03-23T08:28:34.233Z,5.20
2018-03-23T08:31:01.684Z,5.40
2018-03-23T08:33:29.156Z,5.60
2018-03-23T08:35:56.637Z,6.00
2018-03-23T08:38:24.879Z,6.10
2018-03-23T08:40:52.467Z,6.10
2018-03-23T08:43:20.712Z,6.00
2018-03-23T08:45:48.152Z,6.00
2018-03-23T08:48:15.606Z,6.00
2018-03-23T08:50:43.081Z,5.90
2018-03-23T08:53:10.538Z,5.80
2018-03-23T08:55:38.104Z,5.70
2018-03-23T08:58:05.556Z,5.70
2018-03-23T09:00:33.024Z,5.70
2018-03-23T09:03:00.484Z,5.70
2018-03-23T09:05:28.792Z,5.70
2018-03-23T09:07:56.349Z,5.70
2018-03-23T09:10:23.824Z,5.80
2018-03-23T09:12:51.244Z,6.00
2018-03-23T09:15:19.492Z,6.10
2018-03-23T09:17:46.923Z,6.10
2018-03-23T09:20:14.380Z,6.10
2018-03-23T09:22:41.968Z,6.10
2018-03-23T09:25:09.453Z,6.10
2018-03-23T09:27:37.648Z,6.20
2018-03-23T09:30:05.117Z,6.20
2018-03-23T09:32:32.576Z,6.30
2018-03-23T09:35:00.053Z,6.40
2018-03-23T09:37:28.307Z,6.30
2018-03-23T09:39:55.738Z,6.30
2018-03-23T09:42:23.204Z,6.50
2018-03-23T09:44:50.661Z,6.80
2018-03-23T09:47:18.149Z,7.10
2018-03-23T09:49:45.592Z,7.20
2018-03-23T09:52:13.052Z,7.20
2018-03-23T09:54:40.500Z,7.10
2018-03-23T09:57:08.004Z,7.30
2018-03-23T10:04:45.485Z,7.60
2018-03-23T10:07:12.963Z,7.60
2018-03-23T10:09:40.593Z,7.90
2018-03-23T10:12:08.042Z,8.00
2018-03-23T10:14:35.521Z,8.10
2018-03-23T10:17:03.419Z,8.20
2018-03-23T10:19:30.903Z,8.50
2018-03-23T10:21:58.304Z,8.30
2018-03-23T10:24:25.823Z,8.20
2018-03-23T10:26:53.314Z,8.40
2018-03-23T10:29:20.795Z,8.40
2018-03-23T10:31:48.249Z,8.10
2018-03-23T10:34:15.725Z,8.00
2018-03-23T10:36:43.195Z,8.10
2018-03-23T10:39:10.675Z,8.20
2018-03-23T10:41:38.152Z,8.20
2018-03-23T10:44:05.596Z,8.40
2018-03-23T10:46:33.055Z,8.30
2018-03-23T10:49:00.522Z,8.20
2018-03-23T10:51:28.104Z,8.10
2018-03-23T10:53:56.437Z,8.00
2018-03-23T10:56:23.917Z,8.00
2018-03-23T10:58:51.346Z,8.10
2018-03-23T11:01:24.529Z,8.10
2018-03-23T11:03:51.970Z,8.60
2018-03-23T11:06:19.441Z,8.70
2018-03-23T11:08:46.884Z,9.10
2018-03-23T11:11:14.359Z,9.30
2018-03-23T11:13:41.832Z,9.30
2018-03-23T11:16:09.304Z,9.40
2018-03-23T11:18:36.786Z,9.60
2018-03-23T11:21:05.009Z,9.40
2018-03-23T11:23:32.475Z,9.40
2018-03-23T11:25:59.946Z,9.70
2018-03-23T11:28:27.436Z,10.00
2018-03-23T11:30:54.906Z,10.40
2018-03-23T11:33:22.422Z,10.10
2018-03-23T11:35:50.677Z,10.60
2018-03-23T11:38:18.155Z,10.60
2018-03-23T11:40:46.375Z,9.80
2018-03-23T11:43:13.862Z,9.70
2018-03-23T11:45:42.149Z,10.00
2018-03-23T11:48:09.621Z,10.30
2018-03-23T11:50:37.073Z,10.40
2018-03-23T11:53:04.565Z,10.50
2018-03-23T11:55:32.800Z,9.90
2018-03-23T11:58:00.273Z,9.90
2018-03-23T12:00:27.732Z,10.10
2018-03-23T12:02:55.980Z,10.00
2018-03-23T12:05:23.479Z,9.90
2018-03-23T12:07:50.939Z,9.80
2018-03-23T12:10:18.383Z,9.70
2018-03-23T12:12:45.856Z,9.70
2018-03-23T12:15:13.302Z,9.60
2018-03-23T12:17:40.802Z,9.60
2018-03-23T12:20:08.371Z,9.70
2018-03-23T12:22:35.839Z,9.70
2018-03-23T12:25:03.319Z,9.70
2018-03-23T12:27:30.844Z,9.70
2018-03-23T12:29:58.255Z,9.20
2018-03-23T12:32:25.702Z,9.10
2018-03-23T12:34:53.249Z,9.00
2018-03-23T12:37:20.620Z,9.10
2018-03-23T12:39:48.635Z,9.10
2018-03-23T12:42:16.099Z,9.10
2018-03-23T12:44:43.572Z,9.10
2018-03-23T12:47:11.796Z,9.20
2018-03-23T12:49:39.347Z,9.20
2018-03-23T12:52:06.844Z,9.10
2018-03-23T12:54:35.071Z,8.90
2018-03-23T12:57:02.520Z,8.90
2018-03-23T12:59:29.997Z,9.00
2018-03-23T13:01:57.439Z,9.00
2018-03-23T13:04:24.892Z,8.90
2018-03-23T13:06:52.398Z,8.80
2018-03-23T13:09:19.860Z,8.60
2018-03-23T13:11:48.091Z,8.80
2018-03-23T13:14:15.569Z,8.80
2018-03-23T13:16:43.049Z,8.80
2018-03-23T13:19:10.593Z,9.00
2018-03-23T13:21:38.066Z,9.10
2018-03-23T13:24:06.280Z,9.20
2018-03-23T13:26:33.775Z,9.20
2018-03-23T13:29:01.231Z,9.30
2018-03-23T13:31:28.694Z,9.00
2018-03-23T13:33:56.913Z,8.90
2018-03-23T13:36:24.524Z,8.90
2018-03-23T13:38:51.974Z,8.80
2018-03-23T13:41:19.457Z,8.90
2018-03-23T13:43:46.903Z,8.90
2018-03-23T13:46:14.404Z,8.80
2018-03-23T13:48:41.848Z,8.70
2018-03-23T13:51:09.376Z,8.60
2018-03-23T13:53:36.853Z,8.80
2018-03-23T13:56:05.140Z,8.90
2018-03-23T13:58:38.137Z,8.90
2018-03-23T14:01:06.344Z,9.00
2018-03-23T14:03:33.820Z,9.10
2018-03-23T14:06:01.300Z,9.00
2018-03-23T14:08:29.523Z,8.70
2018-03-23T14:10:56.967Z,8.70
2018-03-23T14:13:24.439Z,8.60
2018-03-23T14:15:51.896Z,8.70
2018-03-23T14:18:19.349Z,8.60
2018-03-23T14:20:46.797Z,8.50
2018-03-23T14:23:14.380Z,8.50
2018-03-23T14:25:41.833Z,8.50
2018-03-23T14:28:09.290Z,8.50
2018-03-23T14:30:36.737Z,8.40
2018-03-23T14:33:04.197Z,8.30
2018-03-23T14:35:32.413Z,8.30
2018-03-23T14:38:00.653Z,8.30
2018-03-23T14:40:28.107Z,8.30
2018-03-23T14:42:55.573Z,8.20
2018-03-23T14:45:23.026Z,8.20
2018-03-23T14:47:50.477Z,8.30
2018-03-23T14:50:17.927Z,8.20
2018-03-23T14:52:45.391Z,8.30
2018-03-23T14:55:12.910Z,8.20
2018-03-23T14:57:40.352Z,8.30
2018-03-23T15:00:07.821Z,8.20
2018-03-23T15:02:36.081Z,8.20
2018-03-23T15:05:03.543Z,8.30
2018-03-23T15:07:30.977Z,8.40
2018-03-23T15:09:58.469Z,8.50
2018-03-23T15:12:25.919Z,8.40
2018-03-23T15:14:53.407Z,8.40
2018-03-23T15:17:20.941Z,8.20
2018-03-23T15:19:48.487Z,8.10
2018-03-23T15:22:15.996Z,8.00
2018-03-23T15:24:43.475Z,8.00
2018-03-23T15:27:11.684Z,7.70
2018-03-23T15:29:39.140Z,7.70
2018-03-23T15:32:06.751Z,7.70
2018-03-23T15:34:34.982Z,7.60
2018-03-23T15:37:03.496Z,7.60
2018-03-23T15:39:31.024Z,7.60
2018-03-23T15:41:58.459Z,7.60
2018-03-23T15:44:25.939Z,7.50
2018-03-23T15:46:53.409Z,7.50
2018-03-23T15:49:20.874Z,7.60
2018-03-23T15:51:48.330Z,7.60
2018-03-23T15:54:15.801Z,7.50
2018-03-23T15:56:44.032Z,7.40
2018-03-23T15:59:11.530Z,7.40
2018-03-23T16:01:39.023Z,7.40
2018-03-23T16:04:06.458Z,7.40
2018-03-23T16:06:34.691Z,7.40
2018-03-23T16:09:02.161Z,7.40
2018-03-23T16:11:29.656Z,7.40
2018-03-23T16:13:57.125Z,7.40
2018-03-23T16:16:24.584Z,7.40
2018-03-23T16:18:52.023Z,7.40
2018-03-23T16:21:19.508Z,7.40
2018-03-23T16:23:46.955Z,7.40
2018-03-23T16:26:14.534Z,7.40
2018-03-23T16:28:41.980Z,7.30
2018-03-23T16:31:09.438Z,7.30
2018-03-23T16:33:36.978Z,7.40
2018-03-23T16:36:05.418Z,7.40
2018-03-23T16:38:32.965Z,7.40
2018-03-23T16:41:01.161Z,7.40
2018-03-23T16:43:28.779Z,7.30
2018-03-23T16:45:56.255Z,7.20
2018-03-23T16:48:23.792Z,7.30
2018-03-23T16:50:51.239Z,7.30
2018-03-23T16:53:18.691Z,7.40
2018-03-23T16:55:46.194Z,7.40
2018-03-23T16:58:13.664Z,7.40
2018-03-23T17:00:41.108Z,7.40
2018-03-23T17:03:09.331Z,7.50
2018-03-23T17:05:36.772Z,7.50
2018-03-23T17:08:04.237Z,7.40
2018-03-23T17:10:31.667Z,7.50
2018-03-23T17:12:59.973Z,7.50
2018-03-23T17:15:27.421Z,7.50
2018-03-23T17:17:54.967Z,7.50
2018-03-23T17:20:22.461Z,7.50
2018-03-23T17:22:49.909Z,7.40
2018-03-23T17:25:17.386Z,7.40
2018-03-23T17:27:46.330Z,7.30
2018-03-23T17:30:13.781Z,7.30
2018-03-23T17:32:41.224Z,7.30
2018-03-23T17:35:08.715Z,7.20
2018-03-23T17:37:36.168Z,7.20
2018-03-23T17:40:03.630Z,7.10
2018-03-23T17:42:31.087Z,7.10
2018-03-23T17:44:58.543Z,7.10
2018-03-23T17:47:26.081Z,7.10
2018-03-23T17:49:53.545Z,7.00
2018-03-23T17:52:20.975Z,7.00
2018-03-23T17:54:48.440Z,7.00
2018-03-23T17:57:15.890Z,6.90
2018-03-23T17:59:43.413Z,7.00
2018-03-23T18:02:10.860Z,7.00
2018-03-23T18:04:38.353Z,7.00
2018-03-23T18:07:06.569Z,7.00
2018-03-23T18:09:34.026Z,7.00
2018-03-23T18:12:01.500Z,7.00
2018-03-23T18:14:28.962Z,7.00
2018-03-23T18:16:56.444Z,7.00
2018-03-23T18:19:24.660Z,7.00
2018-03-23T18:21:52.216Z,7.00
2018-03-23T18:24:19.671Z,7.00
2018-03-23T18:26:47.115Z,6.90
2018-03-23T18:29:14.633Z,7.00
2018-03-23T18:31:42.088Z,7.00
2018-03-23T18:34:10.318Z,7.00
2018-03-23T18:36:37.768Z,7.00
2018-03-23T18:39:05.219Z,7.00
2018-03-23T18:41:32.667Z,7.00
2018-03-23T18:44:00.202Z,7.00
2018-03-23T18:46:28.458Z,6.90
2018-03-23T18:48:55.974Z,6.90
2018-03-23T18:51:23.422Z,6.90
2018-03-23T18:53:50.953Z,6.90
2018-03-23T18:56:19.174Z,7.00
2018-03-23T18:58:46.732Z,7.00
2018-03-23T19:01:14.167Z,7.00
2018-03-23T19:03:41.629Z,7.00
2018-03-23T19:06:09.090Z,7.00
2018-03-23T19:08:36.561Z,7.00
2018-03-23T19:11:03.995Z,7.00
2018-03-23T19:13:31.475Z,7.00
2018-03-23T19:15:58.979Z,7.00
2018-03-23T19:18:27.196Z,7.00
2018-03-23T19:20:55.417Z,7.00
2018-03-23T19:23:23.656Z,7.00
2018-03-23T19:25:52.737Z,6.90
2018-03-23T19:28:20.225Z,6.90
2018-03-23T19:30:47.688Z,6.90
2018-03-23T19:33:15.148Z,6.90
2018-03-23T19:35:43.373Z,7.00
2018-03-23T19:38:10.911Z,6.90
2018-03-23T19:40:38.385Z,7.00
2018-03-23T19:43:05.832Z,7.00
2018-03-23T19:45:33.324Z,6.90
2018-03-23T19:48:00.763Z,6.90
2018-03-23T19:50:28.233Z,7.00
2018-03-23T19:52:55.764Z,7.00
2018-03-23T19:55:23.231Z,7.00
2018-03-23T19:57:50.701Z,7.00
2018-03-23T20:00:18.276Z,7.00
2018-03-23T20:02:45.842Z,7.00
2018-03-23T20:05:13.242Z,6.90
2018-03-23T20:07:40.843Z,7.00
2018-03-23T20:10:08.407Z,7.00
2018-03-23T20:12:35.935Z,7.00
2018-03-23T20:15:03.418Z,7.00
2018-03-23T20:17:36.429Z,7.00
2018-03-23T20:20:10.554Z,7.00
2018-03-23T20:22:38.004Z,7.00
2018-03-23T20:25:06.243Z,6.90
2018-03-23T20:27:39.423Z,6.90
2018-03-23T20:30:06.937Z,6.90
2018-03-23T20:32:34.416Z,6.90
2018-03-23T20:35:01.889Z,6.90
2018-03-23T20:37:29.393Z,7.00
2018-03-23T20:39:57.598Z,7.00
2018-03-23T20:42:25.072Z,7.00
2018-03-23T20:44:52.578Z,6.90
2018-03-23T20:47:20.819Z,6.90
2018-03-23T20:49:48.268Z,6.90
2018-03-23T20:52:15.710Z,7.00
2018-03-23T20:54:43.188Z,7.00
2018-03-23T20:57:10.645Z,7.00
2018-03-23T20:59:38.083Z,6.90
2018-03-23T21:02:05.549Z,6.90
2018-03-23T21:04:33.079Z,7.00
2018-03-23T21:07:01.153Z,6.90
2018-03-23T21:09:28.613Z,7.00
2018-03-23T21:11:56.058Z,6.90
2018-03-23T21:14:23.587Z,6.90
2018-03-23T21:16:51.834Z,6.90
2018-03-23T21:19:20.217Z,6.90
2018-03-23T21:21:47.647Z,6.90
2018-03-23T21:24:15.100Z,6.90
2018-03-23T21:26:42.589Z,6.80
2018-03-23T21:29:10.069Z,6.80
2018-03-23T21:31:38.275Z,6.80
2018-03-23T21:34:05.732Z,6.80
2018-03-23T21:36:33.191Z,6.70
2018-03-23T21:39:00.653Z,6.70
2018-03-23T21:41:28.093Z,6.70
2018-03-23T21:43:55.560Z,6.70
2018-03-23T21:46:23.025Z,6.70
2018-03-23T21:48:50.512Z,6.70
2018-03-23T21:51:17.944Z,6.70
2018-03-23T21:53:45.456Z,6.60
2018-03-23T21:56:12.900Z,6.70
2018-03-23T21:58:41.136Z,6.50
2018-03-23T22:01:09.428Z,6.40
2018-03-23T22:03:36.999Z,6.50
2018-03-23T22:06:05.236Z,6.50
2018-03-23T22:08:32.681Z,6.50
2018-03-23T22:11:00.150Z,6.60
2018-03-23T22:13:27.645Z,6.60
2018-03-23T22:15:55.067Z,6.70
2018-03-23T22:18:22.539Z,6.50
2018-03-23T22:20:50.785Z,6.60
2018-03-23T22:23:18.247Z,6.60
2018-03-23T22:25:46.458Z,6.60
2018-03-23T22:28:14.685Z,6.50
2018-03-23T22:30:42.162Z,6.50
2018-03-23T22:33:09.600Z,6.60
2018-03-23T22:35:37.063Z,6.50
2018-03-23T22:38:04.583Z,6.50
2018-03-23T22:40:32.064Z,6.60
2018-03-23T22:42:59.507Z,6.60
2018-03-23T22:45:27.002Z,6.60
2018-03-23T22:47:54.489Z,6.50
2018-03-23T22:50:22.784Z,6.30
2018-03-23T22:52:50.298Z,6.30
2018-03-23T22:55:17.755Z,6.30
2018-03-23T22:57:46.801Z,6.30
2018-03-23T23:00:14.223Z,6.30
2018-03-23T23:02:41.699Z,6.40
2018-03-23T23:05:09.147Z,6.20
2018-03-23T23:07:36.677Z,6.30
2018-03-23T23:10:04.944Z,6.40
2018-03-23T23:12:32.833Z,6.40
2018-03-23T23:15:00.361Z,6.50
2018-03-23T23:17:27.822Z,6.50
2018-03-23T23:19:56.291Z,6.60
2018-03-23T23:22:23.770Z,6.50
2018-03-23T23:24:51.247Z,6.50
2018-03-23T23:27:19.455Z,6.60
2018-03-23T23:29:46.943Z,6.50
2018-03-23T23:32:14.393Z,6.70
2018-03-23T23:34:41.848Z,6.70
2018-03-23T23:37:09.363Z,6.70
2018-03-23T23:39:36.824Z,6.70
2018-03-23T23:42:04.291Z,6.60
2018-03-23T23:44:31.763Z,6.70
2018-03-23T23:46:59.208Z,6.70
2018-03-23T23:49:26.677Z,6.70
2018-03-23T23:51:54.108Z,6.70
2018-03-23T23:54:21.563Z,6.60
2018-03-23T23:56:49.045Z,6.50
2018-03-23T23:59:16.529Z,6.40
